KJCT/JCT METAR and TAF weather

Enter ICAO airport designator
Station Type Date Time Source
KJCT METAR 2020/08/07 11:51 UTC NOAA

KJCT 071151Z AUTO 15007KT 10SM SCT026 25/22 A3006 RMK AO2 SLP136 T02500217 10278 20250 53004


Station Type Date Time Source
KJCT Decoded METAR 2020/08/07 11:51 UTC NOAA

KIMBLE COUNTY AIRPORT, TX, United States (KJCT) 30-31N 099-46W 523M
Aug 07, 2020 - 07:51 AM EDT / 2020.08.07 1151 UTC
Wind: from the SSE (150 degrees) at 8 MPH (7 KT):0
Visibility: 10 mile(s):0
Sky conditions: partly cloudy
Temperature: 77.0 F (25.0 C)
Dew Point: 71.1 F (21.7 C)
Relative Humidity: 81%
Pressure (altimeter): 30.06 in. Hg (1017 hPa)
Pressure tendency: 0.01 inches (0.4 hPa) higher than three hours ago
ob: KJCT 071151Z AUTO 15007KT 10SM SCT026 25/22 A3006 RMK AO2 SLP136 T02500217 10278 20250 53004
cycle: 12

Station Type Date Time Source
KJCT TAF 2020/08/07 12:22 UTC NOAA

TAF KJCT 071120Z 0712/0812 16007KT P6SM BKN035
TEMPO 0712/0714 BKN025
FM071500 18010G19KT P6SM SCT025 SCT250
FM072200 15010KT P6SM FEW050
FM080800 15006KT P6SM SCT025

Example: see airport list